Time;durP1;ratioP1;P1;durP2;ratioP2;P2;SDS_P1;SDS_P2;PMS_P1;PMS_P2;Temp;Humidity;BMP_temperature;BMP_pressure;BME280_temperature;BME280_humidity;BME280_pressure;Samples;Min_cycle;Max_cycle;Signal;HPM_P1;HPM_P2
2022/04/16 00:00:07;;;;;;;12.95;8.65;;;;;;;11.39;69.98;103202.97;5006573;28;20156;-64
2022/04/16 00:02:32;;;;;;;14.77;8.73;;;;;;;11.38;69.48;103199.44;5007200;28;20081;-63
2022/04/16 00:04:58;;;;;;;11.73;8.70;;;;;;;11.29;70.72;103198.56;5006681;28;20493;-64
2022/04/16 00:07:23;;;;;;;11.05;8.48;;;;;;;11.36;69.99;103201.22;5008506;28;20540;-62
2022/04/16 00:09:48;;;;;;;12.70;8.23;;;;;;;11.42;69.77;103205.59;5008224;28;20041;-65
2022/04/16 00:12:14;;;;;;;11.00;8.57;;;;;;;11.59;69.54;103210.03;5006588;28;20186;-65
2022/04/16 00:14:39;;;;;;;10.32;8.90;;;;;;;11.33;70.10;103205.59;5007569;28;20018;-64
2022/04/16 00:17:05;;;;;;;11.20;7.93;;;;;;;11.41;69.64;103206.47;5007591;28;20026;-64
2022/04/16 00:19:31;;;;;;;13.23;8.00;;;;;;;11.42;69.56;103210.88;5007605;28;20026;-63
2022/04/16 00:21:57;;;;;;;10.98;8.43;;;;;;;11.41;69.86;103210.88;5003336;28;20045;-64
2022/04/16 00:24:22;;;;;;;9.73;7.95;;;;;;;11.51;69.38;103210.00;5007112;28;20025;-65
2022/04/16 00:26:50;;;;;;;12.85;8.57;;;;;;;11.44;69.74;103214.38;5006891;28;20033;-63
2022/04/16 00:29:15;;;;;;;17.45;9.40;;;;;;;11.35;70.24;103217.03;5007853;28;20496;-64
2022/04/16 00:31:45;;;;;;;13.18;9.60;;;;;;;11.48;69.61;103217.94;5006365;28;20037;-63
2022/04/16 00:34:13;;;;;;;15.80;9.80;;;;;;;11.47;69.39;103213.53;5008551;28;20148;-64
2022/04/16 00:36:38;;;;;;;13.75;10.15;;;;;;;11.49;68.25;103212.66;5006328;28;20064;-66
2022/04/16 00:39:04;;;;;;;15.73;9.75;;;;;;;11.50;68.42;103217.03;5008418;28;20149;-64
2022/04/16 00:41:29;;;;;;;15.40;10.63;;;;;;;11.45;67.81;103210.00;5006314;28;20022;-64
2022/04/16 00:43:54;;;;;;;14.77;10.50;;;;;;;11.44;66.59;103219.66;5007883;28;20029;-66
2022/04/16 00:46:20;;;;;;;13.65;9.85;;;;;;;11.52;66.43;103219.69;5005281;28;20117;-65
2022/04/16 00:48:45;;;;;;;13.77;9.70;;;;;;;11.54;66.40;103215.28;5007243;28;20034;-64
2022/04/16 00:51:12;;;;;;;13.20;9.48;;;;;;;11.46;66.73;103219.66;5007181;28;20125;-64
2022/04/16 00:53:38;;;;;;;15.50;10.25;;;;;;;11.44;66.72;103217.03;5005188;28;20092;-64
2022/04/16 00:56:06;;;;;;;16.05;9.73;;;;;;;11.45;66.94;103216.19;5007791;28;20057;-64
2022/04/16 00:58:31;;;;;;;13.07;10.70;;;;;;;11.32;67.83;103217.91;5005983;28;20509;-64
2022/04/16 01:00:56;;;;;;;16.35;11.65;;;;;;;11.31;68.19;103215.25;5007671;28;20057;-63
2022/04/16 01:03:22;;;;;;;17.67;11.85;;;;;;;11.20;68.59;103215.25;5005959;28;20046;-66
2022/04/16 01:05:47;;;;;;;14.95;11.30;;;;;;;11.28;67.81;103221.41;5012457;22;20046;-64
2022/04/16 01:08:12;;;;;;;16.73;11.45;;;;;;;11.17;67.26;103216.13;4987337;28;20038;-65
2022/04/16 01:10:38;;;;;;;14.07;10.20;;;;;;;11.15;67.17;103222.28;4986968;28;20030;-64
2022/04/16 01:13:05;;;;;;;13.15;10.82;;;;;;;11.10;66.93;103219.63;4970265;28;20022;-65
2022/04/16 01:15:30;;;;;;;14.68;10.20;;;;;;;11.16;66.58;103224.03;4986607;28;20034;-64
2022/04/16 01:17:57;;;;;;;13.23;9.00;;;;;;;11.25;65.57;103224.06;4988453;28;20479;-65
2022/04/16 01:20:23;;;;;;;14.73;10.20;;;;;;;11.12;66.73;103221.41;4985477;28;20462;-64
2022/04/16 01:22:50;;;;;;;12.18;9.18;;;;;;;11.08;67.43;103222.25;4987930;28;20475;-64
2022/04/16 01:25:16;;;;;;;13.95;9.30;;;;;;;11.12;67.59;103226.69;4986743;28;20076;-63
2022/04/16 01:27:45;;;;;;;14.50;9.93;;;;;;;11.18;67.32;103227.56;4987799;28;20239;-64
2022/04/16 01:30:15;;;;;;;16.50;10.55;;;;;;;11.08;67.64;103227.53;4969600;28;20473;-65
2022/04/16 01:32:40;;;;;;;10.93;9.57;;;;;;;11.00;67.07;103221.38;4969778;28;20030;-65
2022/04/16 01:35:06;;;;;;;17.55;9.57;;;;;;;10.83;67.33;103214.28;4986430;28;20034;-65
2022/04/16 01:37:34;;;;;;;13.10;9.32;;;;;;;10.82;66.80;103215.16;4986954;28;20140;-64
2022/04/16 01:40:00;;;;;;;14.38;10.20;;;;;;;10.58;67.37;103215.94;4987269;28;20022;-64
2022/04/16 01:42:25;;;;;;;17.92;10.30;;;;;;;10.48;67.51;103213.25;4986504;28;20084;-65
2022/04/16 01:44:51;;;;;;;12.75;10.00;;;;;;;10.48;67.71;103223.81;4987467;28;20460;-65
2022/04/16 01:47:17;;;;;;;13.90;10.50;;;;;;;10.38;68.25;103205.28;4967897;28;20198;-66
2022/04/16 01:49:42;;;;;;;16.83;9.98;;;;;;;10.20;69.01;103209.56;4986624;28;20420;-65
2022/04/16 01:52:08;;;;;;;17.13;10.45;;;;;;;10.21;69.17;103217.47;4985659;28;20035;-64
2022/04/16 01:54:34;;;;;;;15.43;10.63;;;;;;;10.06;69.78;103210.34;4987121;28;20473;-66
2022/04/16 01:56:59;;;;;;;13.05;9.70;;;;;;;9.92;70.80;103215.56;4985092;28;20137;-65
2022/04/16 01:59:25;;;;;;;20.42;11.23;;;;;;;9.90;71.24;103216.41;4986668;28;20039;-65
2022/04/16 02:01:51;;;;;;;13.82;10.75;;;;;;;9.88;71.21;103212.88;4986898;28;20059;-61
2022/04/16 02:04:17;;;;;;;15.63;11.15;;;;;;;9.76;71.56;103226.84;4985731;28;20160;-65
2022/04/16 02:06:42;;;;;;;12.80;10.05;;;;;;;9.76;71.19;103224.19;4986160;28;20121;-65
2022/04/16 02:09:07;;;;;;;14.98;11.52;;;;;;;9.61;71.55;103226.72;4986609;28;20112;-64
2022/04/16 02:11:32;;;;;;;14.52;11.00;;;;;;;9.61;71.60;103216.19;4985288;28;20105;-64
2022/04/16 02:13:58;;;;;;;14.90;10.50;;;;;;;9.56;71.79;103222.28;4987228;28;20023;-64
2022/04/16 02:16:24;;;;;;;14.98;11.60;;;;;;;9.54;71.75;103224.91;4985667;28;20085;-64
2022/04/16 02:18:51;;;;;;;14.65;11.02;;;;;;;9.48;71.82;103228.38;4987472;28;20083;-65
2022/04/16 02:21:17;;;;;;;16.00;11.27;;;;;;;9.43;72.23;103231.81;4985560;28;20022;-64
2022/04/16 02:23:43;;;;;;;14.68;11.60;;;;;;;9.41;72.18;103228.28;4986785;28;20052;-65
2022/04/16 02:26:09;;;;;;;13.30;10.50;;;;;;;9.34;72.49;103222.97;4968719;28;20556;-65
2022/04/16 02:28:35;;;;;;;16.65;11.15;;;;;;;9.30;72.77;103226.44;4986104;28;20092;-64
2022/04/16 02:31:00;;;;;;;15.63;11.13;;;;;;;9.30;72.53;103220.31;4968570;28;20517;-65
2022/04/16 02:33:27;;;;;;;18.83;12.18;;;;;;;9.14;73.18;103225.41;4985816;28;20533;-64
2022/04/16 02:35:52;;;;;;;19.17;11.95;;;;;;;9.10;72.86;103227.09;4985006;28;20084;-66
2022/04/16 02:38:18;;;;;;;17.27;12.07;;;;;;;9.15;72.84;103232.41;4986477;28;20117;-64
2022/04/16 02:40:43;;;;;;;17.50;11.98;;;;;;;9.17;72.74;103225.44;4985659;28;20109;-65
2022/04/16 02:43:08;;;;;;;16.60;12.07;;;;;;;9.14;72.89;103228.03;4985985;28;20049;-63
2022/04/16 02:48:18;;;;;;;17.08;11.88;;;;;;;8.96;73.70;103228.69;4985978;28;20130;-65
2022/04/16 02:50:44;;;;;;;18.10;12.82;;;;;;;8.95;73.89;103234.84;4985768;28;20026;-64
2022/04/16 02:53:09;;;;;;;18.02;11.98;;;;;;;8.95;73.60;103234.84;4985239;28;20080;-63
2022/04/16 02:55:35;;;;;;;18.98;12.77;;;;;;;8.90;73.91;103228.63;4986065;28;20030;-64
2022/04/16 02:58:00;;;;;;;19.00;12.52;;;;;;;8.89;73.82;103237.38;4993753;28;20479;-65
2022/04/16 03:00:26;;;;;;;16.80;12.82;;;;;;;8.88;73.68;103227.75;5005946;28;20053;-66
2022/04/16 03:02:52;;;;;;;20.33;12.85;;;;;;;8.89;73.59;103235.66;4997849;28;20033;-65
2022/04/16 03:05:18;;;;;;;17.70;13.05;;;;;;;8.84;73.94;103232.06;4985648;28;20026;-66
2022/04/16 03:07:44;;;;;;;20.08;13.25;;;;;;;8.83;73.91;103241.72;4984533;28;20089;-64
2022/04/16 03:10:09;;;;;;;13.57;11.68;;;;;;;8.82;74.01;103245.19;4989288;28;20022;-66
2022/04/16 03:12:41;;;;;;;20.85;14.32;;;;;;;8.75;74.30;103240.72;4988608;28;20099;-66
2022/04/16 03:17:54;;;;;;;20.25;14.20;;;;;;;8.67;74.56;103245.03;4988919;28;20048;-64
2022/04/16 03:20:20;;;;;;;21.38;14.13;;;;;;;8.62;74.77;103241.44;4972524;28;20049;-65
2022/04/16 03:22:45;;;;;;;18.38;14.13;;;;;;;8.65;74.54;103246.75;4988532;28;20362;-66
2022/04/16 03:25:11;;;;;;;18.27;13.98;;;;;;;8.60;74.89;103241.41;4989885;28;20033;-65
2022/04/16 03:27:39;;;;;;;20.85;15.43;;;;;;;8.64;74.61;103244.97;4988694;28;20022;-66
2022/04/16 03:30:06;;;;;;;18.05;14.02;;;;;;;8.62;74.45;103241.44;4989366;28;20041;-64
2022/04/16 03:32:31;;;;;;;18.52;14.05;;;;;;;8.58;74.67;103240.53;4987405;28;20030;-64
2022/04/16 03:34:59;;;;;;;20.88;14.27;;;;;;;8.58;74.74;103240.53;4988793;28;20044;-64
2022/04/16 03:37:24;;;;;;;26.17;17.23;;;;;;;8.33;75.64;103248.91;4988535;28;20022;-65
2022/04/16 03:39:51;;;;;;;22.85;16.25;;;;;;;8.30;75.85;103243.63;4989423;28;20072;-64
2022/04/16 03:42:18;;;;;;;21.13;14.45;;;;;;;8.33;75.63;103248.91;4989469;28;20026;-66
2022/04/16 03:44:43;;;;;;;22.05;15.95;;;;;;;8.33;75.84;103256.78;4988196;28;20495;-65
2022/04/16 03:47:10;;;;;;;20.73;15.13;;;;;;;8.27;75.92;103254.06;4989216;28;20022;-64
2022/04/16 03:49:35;;;;;;;25.40;15.43;;;;;;;8.40;75.61;103254.25;4987416;28;20034;-65
2022/04/16 03:52:00;;;;;;;20.65;14.95;;;;;;;8.33;75.89;103256.78;4989345;28;20077;-63
2022/04/16 03:59:59;;;;;;;23.05;14.65;;;;;;;8.25;76.23;103265.44;4999496;28;20553;-64
2022/04/16 04:02:25;;;;;;;22.40;15.48;;;;;;;8.09;76.65;103263.44;5008208;28;20056;-64
2022/04/16 04:04:51;;;;;;;23.95;16.70;;;;;;;8.16;76.64;103269.66;4997071;28;20058;-64
2022/04/16 04:07:16;;;;;;;21.33;15.90;;;;;;;8.18;76.32;103269.69;4989134;28;20060;-64
2022/04/16 04:09:43;;;;;;;24.77;16.63;;;;;;;8.16;76.54;103274.06;4970068;28;20113;-65
2022/04/16 04:12:12;;;;;;;23.13;16.88;;;;;;;8.12;76.48;103280.13;4988768;28;20105;-65
2022/04/16 04:14:39;;;;;;;24.55;16.10;;;;;;;8.01;76.92;103279.94;4987955;28;20057;-64
2022/04/16 04:17:06;;;;;;;23.45;16.90;;;;;;;7.96;77.60;103283.38;4988516;28;20057;-65
2022/04/16 04:19:33;;;;;;;26.92;18.33;;;;;;;7.91;77.50;103273.63;4986756;28;20037;-64
2022/04/16 04:21:58;;;;;;;25.70;18.08;;;;;;;7.84;77.87;103275.28;4971408;28;20066;-64
2022/04/16 04:24:24;;;;;;;25.88;16.88;;;;;;;7.82;77.83;103277.00;4986377;28;20030;-63
2022/04/16 04:26:49;;;;;;;25.40;17.40;;;;;;;7.82;77.79;103277.88;4989103;28;20026;-64
2022/04/16 04:29:14;;;;;;;27.52;16.45;;;;;;;7.83;77.90;103279.66;4987372;28;20034;-63
2022/04/16 04:31:39;;;;;;;24.50;17.35;;;;;;;7.87;77.83;103282.31;4985125;28;21225;-66
2022/04/16 04:34:05;;;;;;;28.48;17.73;;;;;;;7.87;77.70;103298.06;4987337;28;20098;-66
2022/04/16 04:36:30;;;;;;;27.52;18.23;;;;;;;7.88;77.75;103292.84;4987938;28;20181;-65
2022/04/16 04:38:55;;;;;;;24.55;17.33;;;;;;;7.73;78.38;103288.22;4987915;28;20030;-70
2022/04/16 04:41:21;;;;;;;27.05;17.70;;;;;;;7.74;78.43;103291.75;4988115;28;20027;-61
2022/04/16 04:43:46;;;;;;;28.83;18.73;;;;;;;7.74;78.50;103297.00;4988771;28;20373;-63
2022/04/16 04:46:11;;;;;;;31.58;17.95;;;;;;;7.74;78.53;103297.88;4987465;28;20294;-65
2022/04/16 04:48:36;;;;;;;31.83;18.48;;;;;;;7.76;78.42;103295.25;4987280;28;20058;-64
2022/04/16 04:51:02;;;;;;;30.73;19.65;;;;;;;7.70;78.64;103299.56;4988400;28;20094;-66
2022/04/16 04:53:27;;;;;;;30.70;18.35;;;;;;;7.69;78.58;103295.19;4987105;28;20041;-65
2022/04/16 04:55:52;;;;;;;27.63;18.45;;;;;;;7.65;78.69;103298.56;4987999;28;20465;-65
2022/04/16 04:58:18;;;;;;;26.92;18.25;;;;;;;7.69;78.63;103297.81;4988225;28;20030;-65
2022/04/16 05:00:43;;;;;;;29.27;18.23;;;;;;;7.71;78.34;103292.56;4986733;28;20038;-64
2022/04/16 05:03:08;;;;;;;28.52;18.55;;;;;;;7.74;78.29;103291.75;4987712;28;20464;-63
2022/04/16 05:05:34;;;;;;;29.65;18.05;;;;;;;7.71;78.49;103290.81;4986757;28;20026;-64
2022/04/16 05:07:59;;;;;;;30.33;18.33;;;;;;;7.74;78.53;103295.25;4987171;28;20065;-63
2022/04/16 05:10:24;;;;;;;29.35;19.38;;;;;;;7.68;78.83;103300.38;4987373;28;20022;-65
2022/04/16 05:12:50;;;;;;;31.52;18.10;;;;;;;7.66;79.04;103300.38;4987833;28;20488;-65
2022/04/16 05:15:16;;;;;;;25.23;18.20;;;;;;;7.66;79.04;103299.47;4987584;28;20065;-64
2022/04/16 05:17:41;;;;;;;31.20;17.98;;;;;;;7.83;78.54;103302.41;4969192;28;20022;-63
2022/04/16 05:20:07;;;;;;;27.80;16.80;;;;;;;7.84;78.42;103310.31;4986839;28;20034;-64
2022/04/16 05:22:33;;;;;;;27.20;18.48;;;;;;;7.80;78.74;103315.47;4986590;28;20021;-65
2022/04/16 05:24:58;;;;;;;25.95;19.17;;;;;;;7.82;78.85;103316.38;4987449;28;20047;-66
2022/04/16 05:27:25;;;;;;;23.98;16.65;;;;;;;7.86;78.79;103317.31;4986068;28;20112;-64
2022/04/16 05:30:12;;;;;;;28.02;19.60;;;;;;;7.79;78.68;103322.47;4986475;28;20030;-66
2022/04/16 05:32:40;;;;;;;24.05;16.85;;;;;;;7.90;78.70;103327.00;4985160;28;20037;-65
2022/04/16 05:35:06;;;;;;;30.98;20.08;;;;;;;7.94;78.60;103331.44;4986955;28;20484;-64
2022/04/16 05:37:32;;;;;;;25.23;17.33;;;;;;;7.99;78.38;103329.81;4985768;28;20022;-64
2022/04/16 05:39:57;;;;;;;27.75;18.00;;;;;;;8.03;78.15;103323.75;4987577;28;20510;-65
2022/04/16 05:42:23;;;;;;;29.65;19.38;;;;;;;7.82;78.87;103335.63;4985517;28;20030;-64
2022/04/16 05:44:48;;;;;;;32.05;20.25;;;;;;;7.97;78.77;103342.91;4987724;28;20092;-62
2022/04/16 05:47:14;;;;;;;27.17;18.15;;;;;;;8.03;78.44;103346.47;4985596;28;20072;-65
2022/04/16 05:49:39;;;;;;;25.52;18.65;;;;;;;8.19;77.92;103339.75;4985965;28;20262;-65
2022/04/16 05:52:05;;;;;;;30.67;19.20;;;;;;;7.95;79.11;103343.75;4985106;28;20473;-65
2022/04/16 05:54:31;;;;;;;31.20;18.80;;;;;;;8.03;78.61;103339.50;4977002;28;20046;-63
2022/04/16 05:56:56;;;;;;;31.63;19.45;;;;;;;8.13;78.53;103340.53;4976570;28;20019;-64
2022/04/16 05:59:22;;;;;;;27.02;18.60;;;;;;;8.20;78.46;103349.41;4967028;28;20066;-64
2022/04/16 06:01:48;;;;;;;30.17;19.85;;;;;;;8.27;78.31;103348.63;4966096;28;20019;-65
2022/04/16 06:04:13;;;;;;;28.10;18.52;;;;;;;8.44;77.73;103353.28;4981342;28;20014;-65
2022/04/16 06:06:39;;;;;;;26.80;17.80;;;;;;;8.53;77.52;103358.69;4985443;28;20085;-66
2022/04/16 06:09:04;;;;;;;32.65;19.08;;;;;;;8.61;77.52;103361.44;4984561;28;20038;-63
2022/04/16 06:11:31;;;;;;;25.95;16.65;;;;;;;8.72;77.18;103365.13;4977675;28;20469;-64
2022/04/16 06:13:56;;;;;;;24.55;16.90;;;;;;;8.81;76.73;103367.00;4975730;28;20019;-61
2022/04/16 06:16:21;;;;;;;26.38;17.02;;;;;;;8.75;77.21;103369.53;4977085;28;20343;-62
2022/04/16 06:18:47;;;;;;;25.10;17.35;;;;;;;8.85;76.82;103360.91;4975411;28;20532;-63
2022/04/16 06:21:12;;;;;;;26.35;17.42;;;;;;;8.79;77.02;103360.84;4978072;28;20472;-61
2022/04/16 06:23:37;;;;;;;26.30;17.63;;;;;;;8.96;76.78;103362.81;4977487;28;20053;-60
2022/04/16 06:26:03;;;;;;;31.42;19.35;;;;;;;9.04;76.43;103371.72;4985475;28;20470;-62
2022/04/16 06:28:28;;;;;;;35.28;20.40;;;;;;;9.05;76.32;103369.94;4985658;28;20058;-59
2022/04/16 06:30:53;;;;;;;28.17;18.48;;;;;;;9.14;76.46;103377.06;4985227;28;20022;-62
2022/04/16 06:33:19;;;;;;;29.30;18.15;;;;;;;9.26;76.20;103378.97;4984924;28;20019;-59
2022/04/16 06:35:44;;;;;;;31.77;18.92;;;;;;;9.35;76.17;103372.09;4985149;28;20028;-63
2022/04/16 06:38:09;;;;;;;29.40;19.35;;;;;;;9.40;75.84;103379.16;4985131;28;20022;-64
2022/04/16 06:40:35;;;;;;;25.73;18.83;;;;;;;9.49;76.02;103379.28;4985107;28;20030;-63
2022/04/16 06:43:00;;;;;;;27.50;19.58;;;;;;;9.49;76.06;103379.28;4985704;28;20025;-63
2022/04/16 06:45:25;;;;;;;26.17;18.42;;;;;;;9.63;75.35;103381.19;4985505;28;20022;-64
2022/04/16 06:47:51;;;;;;;31.05;17.83;;;;;;;9.73;75.31;103383.91;4985343;28;20054;-62
2022/04/16 06:50:16;;;;;;;29.35;19.85;;;;;;;9.75;74.95;103383.91;4976866;28;20042;-64
2022/04/16 06:52:41;;;;;;;26.92;19.42;;;;;;;9.84;75.19;103380.50;4984578;28;20035;-63
2022/04/16 06:55:07;;;;;;;30.02;19.85;;;;;;;9.93;75.10;103387.63;4983249;28;20034;-63
2022/04/16 06:57:32;;;;;;;28.95;19.70;;;;;;;9.97;75.23;103384.16;4966019;28;20030;-60
2022/04/16 06:59:58;;;;;;;35.72;20.98;;;;;;;10.01;75.23;103393.84;4984070;28;20476;-61
2022/04/16 07:02:23;;;;;;;32.22;20.55;;;;;;;10.10;74.78;103380.78;4984660;28;20608;-64
2022/04/16 07:04:49;;;;;;;32.92;21.42;;;;;;;10.11;74.96;103390.44;4966577;28;20319;-62
2022/04/16 07:07:14;;;;;;;33.55;20.52;;;;;;;10.18;74.82;103390.50;4981622;28;20043;-64
2022/04/16 07:09:40;;;;;;;29.05;19.00;;;;;;;10.32;74.53;103388.84;4972055;28;20534;-62
2022/04/16 07:12:07;;;;;;;31.45;20.05;;;;;;;10.41;74.43;103382.75;4978651;28;20037;-62
2022/04/16 07:14:33;;;;;;;34.80;21.65;;;;;;;10.40;74.63;103388.03;4974747;28;20174;-64
2022/04/16 07:16:59;;;;;;;27.60;21.30;;;;;;;10.55;74.37;103389.94;4966729;28;20035;-62
2022/04/16 07:19:25;;;;;;;32.53;22.20;;;;;;;10.61;74.14;103401.41;4984346;28;20034;-61
2022/04/16 07:21:50;;;;;;;33.42;20.98;;;;;;;10.65;74.46;103390.91;4984386;28;20041;-62
2022/04/16 07:24:15;;;;;;;32.72;21.02;;;;;;;10.74;73.70;103394.47;4985375;28;20027;-62
2022/04/16 07:26:41;;;;;;;30.30;21.42;;;;;;;10.77;73.73;103383.03;4983880;28;20425;-62
2022/04/16 07:29:06;;;;;;;33.00;20.42;;;;;;;10.88;73.51;103393.66;4984938;28;20022;-63
2022/04/16 07:31:31;;;;;;;30.17;20.70;;;;;;;11.04;73.50;103394.63;4983808;28;20034;-62
2022/04/16 07:33:57;;;;;;;28.90;20.75;;;;;;;11.19;73.06;103388.53;4984141;28;20026;-63
2022/04/16 07:36:22;;;;;;;31.25;20.98;;;;;;;11.21;72.20;103384.16;4983855;28;20030;-65
2022/04/16 07:38:47;;;;;;;32.83;23.65;;;;;;;11.12;73.03;103385.00;4985925;28;20495;-68
2022/04/16 07:41:13;;;;;;;36.60;24.55;;;;;;;11.21;73.15;103380.63;4983624;28;20116;-66
2022/04/16 07:43:38;;;;;;;38.08;25.98;;;;;;;11.43;72.70;103385.97;4975753;28;20058;-65
2022/04/16 07:46:03;;;;;;;35.97;25.35;;;;;;;11.04;72.76;103385.81;4975002;28;20089;-64
2022/04/16 07:48:29;;;;;;;37.88;24.80;;;;;;;11.30;72.53;103393.88;4963627;28;20030;-65
2022/04/16 07:50:54;;;;;;;30.90;21.25;;;;;;;11.35;72.92;103386.84;4974103;28;20030;-64
2022/04/16 07:53:20;;;;;;;29.10;21.05;;;;;;;11.60;71.92;103392.22;4976558;28;20030;-65
2022/04/16 07:55:46;;;;;;;29.23;20.20;;;;;;;11.66;71.48;103395.75;4975475;28;20117;-63
2022/04/16 07:58:12;;;;;;;28.45;19.77;;;;;;;11.59;71.79;103393.09;4979956;28;20116;-63
2022/04/16 08:00:37;;;;;;;32.92;20.65;;;;;;;11.69;71.02;103396.66;4986953;28;20109;-63
2022/04/16 08:03:02;;;;;;;31.17;19.55;;;;;;;11.70;71.09;103401.03;4987033;28;20116;-65
2022/04/16 08:05:28;;;;;;;30.45;21.63;;;;;;;11.83;71.09;103393.16;4987044;28;20034;-63
2022/04/16 08:07:53;;;;;;;27.83;19.13;;;;;;;11.80;70.62;103401.94;4967367;28;20101;-62
2022/04/16 08:10:18;;;;;;;28.33;20.33;;;;;;;11.98;70.23;103405.50;4968470;28;20027;-64
2022/04/16 08:12:44;;;;;;;29.70;19.52;;;;;;;11.96;70.74;103396.69;4967643;28;20035;-63
2022/04/16 08:15:10;;;;;;;32.47;20.80;;;;;;;12.13;70.50;103397.63;4966668;28;20038;-64
2022/04/16 08:17:37;;;;;;;31.48;19.38;;;;;;;12.11;70.63;103395.84;4966645;28;20038;-66
2022/04/16 08:20:04;;;;;;;24.63;17.65;;;;;;;12.21;69.86;103396.72;4967165;28;20402;-65
2022/04/16 08:22:32;;;;;;;30.75;20.27;;;;;;;11.89;70.34;103387.84;4967452;28;20536;-65
2022/04/16 08:27:45;;;;;;;27.33;18.98;;;;;;;12.08;70.82;103395.84;4967588;28;20053;-62
2022/04/16 08:30:12;;;;;;;26.83;19.08;;;;;;;12.37;70.21;103398.50;4966540;28;20034;-61
2022/04/16 08:32:37;;;;;;;29.88;19.42;;;;;;;12.54;69.44;103394.97;4966442;28;20034;-63
2022/04/16 08:35:10;;;;;;;26.45;18.05;;;;;;;12.60;69.25;103394.06;4967683;28;20023;-62
2022/04/16 08:37:35;;;;;;;25.92;18.38;;;;;;;12.55;69.19;103401.16;4967362;28;20030;-61
2022/04/16 08:40:01;;;;;;;28.58;19.20;;;;;;;12.73;69.54;103400.22;4968904;28;20109;-66
2022/04/16 08:42:26;;;;;;;24.75;17.23;;;;;;;12.95;68.80;103402.81;4967047;28;20164;-62
2022/04/16 08:44:51;;;;;;;26.55;17.58;;;;;;;12.92;68.19;103400.19;4968500;28;20162;-61
2022/04/16 08:47:17;;;;;;;23.58;16.67;;;;;;;13.01;67.67;103405.47;4967128;28;20085;-61
2022/04/16 08:49:44;;;;;;;24.90;17.55;;;;;;;13.06;67.20;103406.31;4987431;28;20477;-61
2022/04/16 08:52:10;;;;;;;23.50;16.80;;;;;;;12.91;68.62;103409.00;4986906;28;20029;-61
2022/04/16 08:54:36;;;;;;;24.27;17.13;;;;;;;13.02;67.33;103412.50;4968280;28;20113;-61
2022/04/16 08:57:02;;;;;;;23.90;16.70;;;;;;;13.20;66.87;103411.56;4967387;28;20054;-64
2022/04/16 08:59:27;;;;;;;22.65;16.75;;;;;;;13.16;67.89;103415.13;4974626;28;20042;-62
2022/04/16 09:01:53;;;;;;;24.60;17.77;;;;;;;13.16;67.39;103408.94;4986938;28;20397;-63
2022/04/16 09:04:20;;;;;;;22.25;15.93;;;;;;;13.20;66.17;103403.63;4980429;28;20026;-63
2022/04/16 09:06:59;;;;;;;23.15;16.65;;;;;;;13.27;66.43;103405.34;4965010;28;20053;-62
2022/04/16 09:09:25;;;;;;;26.25;16.92;;;;;;;13.48;67.18;103399.94;4982745;28;20453;-63
2022/04/16 09:11:50;;;;;;;22.48;16.88;;;;;;;13.22;66.63;103401.84;4987255;28;20022;-60
2022/04/16 09:14:16;;;;;;;22.33;15.55;;;;;;;13.26;67.32;103403.59;4972518;28;20031;-55
2022/04/16 09:16:42;;;;;;;22.00;15.57;;;;;;;13.48;67.10;103402.59;4965915;28;20030;-57
2022/04/16 09:19:12;;;;;;;23.08;16.83;;;;;;;13.58;66.65;103403.47;4964410;28;20031;-58
2022/04/16 09:21:38;;;;;;;24.73;17.83;;;;;;;13.43;66.37;103409.69;4966276;28;20460;-59
2022/04/16 09:24:03;;;;;;;23.70;17.10;;;;;;;13.72;65.88;103398.97;4963726;28;20033;-59
2022/04/16 09:26:34;;;;;;;24.65;16.42;;;;;;;13.50;66.28;103391.16;4956545;28;20426;-56
2022/04/16 09:29:06;;;;;;;21.50;15.90;;;;;;;13.28;66.36;103393.00;4964879;28;20497;-55
2022/04/16 09:31:32;;;;;;;28.20;17.20;;;;;;;13.36;67.27;103400.88;4967487;28;20067;-58
2022/04/16 09:33:58;;;;;;;21.38;16.33;;;;;;;13.80;66.30;103398.94;4964980;28;20060;-55
2022/04/16 09:36:25;;;;;;;21.77;17.10;;;;;;;13.87;66.59;103399.75;4965901;28;20305;-58
2022/04/16 09:38:58;;;;;;;23.70;16.17;;;;;;;14.20;64.99;103396.84;4952673;28;20436;-58
2022/04/16 09:41:30;;;;;;;25.67;16.50;;;;;;;14.32;64.22;103398.53;4947839;28;20035;-57
2022/04/16 09:43:55;;;;;;;21.30;16.35;;;;;;;14.30;64.37;103395.88;4944948;28;20329;-58
2022/04/16 09:46:22;;;;;;;19.48;14.90;;;;;;;14.55;63.66;103395.69;4945820;28;20042;-59
2022/04/16 09:48:47;;;;;;;22.13;16.33;;;;;;;14.50;63.77;103397.47;4945309;28;20501;-58
2022/04/16 09:51:13;;;;;;;23.23;15.63;;;;;;;14.76;63.10;103391.94;4944359;28;20035;-58
2022/04/16 09:53:39;;;;;;;22.65;15.18;;;;;;;14.68;62.67;103391.13;4966761;28;20019;-60
2022/04/16 09:56:11;;;;;;;21.83;14.88;;;;;;;14.88;61.76;103383.00;4963637;28;20014;-59
2022/04/16 09:58:39;;;;;;;21.02;14.35;;;;;;;14.78;61.78;103382.19;4966491;28;20030;-58
2022/04/16 10:01:04;;;;;;;20.40;14.73;;;;;;;15.00;61.82;103391.69;4965161;28;20029;-67
2022/04/16 10:03:30;;;;;;;19.20;15.15;;;;;;;14.66;61.84;103384.97;4965043;28;20027;-63
2022/04/16 10:05:57;;;;;;;17.75;13.25;;;;;;;14.68;61.99;103382.28;4958202;28;20126;-66
2022/04/16 10:08:22;;;;;;;18.35;13.60;;;;;;;14.57;61.29;103385.91;4982177;28;20084;-68
2022/04/16 10:10:54;;;;;;;19.40;13.32;;;;;;;14.80;61.48;103384.84;4974181;28;20030;-67
2022/04/16 10:13:21;;;;;;;18.58;12.45;;;;;;;14.22;61.62;103389.78;4967251;28;20031;-65
2022/04/16 10:16:04;;;;;;;18.10;12.18;;;;;;;14.63;61.03;103387.66;4966222;28;20049;-69
2022/04/16 10:18:32;;;;;;;18.25;13.90;;;;;;;14.65;61.39;103386.72;4977988;28;20381;-72
2022/04/16 10:20:59;;;;;;;18.90;13.48;;;;;;;14.96;62.12;103395.28;4975893;28;20018;-66
2022/04/16 10:23:37;;;;;;;14.23;10.23;;;;;;;15.39;58.39;103393.88;4972647;28;20025;-57
2022/04/16 10:26:05;;;;;;;13.48;10.48;;;;;;;15.12;58.08;103393.31;4978259;28;20030;-58
2022/04/16 10:28:52;;;;;;;15.68;10.38;;;;;;;15.05;59.27;103383.69;4985002;28;20018;-57
2022/04/16 10:31:23;;;;;;;16.50;9.68;;;;;;;15.55;58.54;103383.91;4985215;28;20461;-60
2022/04/16 10:34:05;;;;;;;14.27;10.05;;;;;;;15.52;57.53;103381.28;4984094;28;20050;-57
2022/04/16 10:36:41;;;;;;;15.35;11.15;;;;;;;15.34;57.65;103385.97;4984606;28;20488;-57
2022/04/16 10:39:17;;;;;;;13.57;10.80;;;;;;;15.30;57.72;103389.56;4985012;28;20109;-56
2022/04/16 10:41:53;;;;;;;14.57;9.60;;;;;;;16.01;56.88;103386.78;4984812;28;20040;-59
2022/04/16 10:44:19;;;;;;;13.15;8.98;;;;;;;16.23;55.88;103389.09;4984256;28;20494;-60
2022/04/16 10:46:49;;;;;;;13.07;9.50;;;;;;;16.39;55.58;103384.38;4967760;28;20023;-57
2022/04/16 10:49:19;;;;;;;13.07;9.23;;;;;;;16.27;53.91;103388.13;4984590;28;20026;-56
2022/04/16 10:51:45;;;;;;;9.60;7.93;;;;;;;16.37;55.04;103376.41;4984553;28;20474;-56
2022/04/16 10:54:15;;;;;;;11.50;8.48;;;;;;;16.55;52.62;103374.31;4985211;28;20036;-56
2022/04/16 10:56:53;;;;;;;12.77;9.35;;;;;;;17.00;53.19;103375.22;4984749;28;20050;-59
2022/04/16 10:59:18;;;;;;;11.70;8.27;;;;;;;16.95;52.93;103374.47;4985074;28;20271;-58
2022/04/16 11:01:52;;;;;;;10.95;8.63;;;;;;;17.07;51.43;103376.03;4984551;28;20074;-61
2022/04/16 11:04:18;;;;;;;9.77;7.80;;;;;;;17.35;52.81;103376.31;4983809;28;20480;-59
2022/04/16 11:06:45;;;;;;;9.25;6.68;;;;;;;17.74;51.93;103374.53;4984709;28;20050;-60
2022/04/16 11:09:17;;;;;;;7.25;6.22;;;;;;;16.95;48.63;103377.13;4985163;28;20022;-60
2022/04/16 11:11:43;;;;;;;6.97;5.40;;;;;;;17.20;49.19;103373.97;4984889;28;20477;-59
2022/04/16 11:14:09;;;;;;;8.15;6.10;;;;;;;17.19;48.49;103378.44;4984875;28;20027;-58
2022/04/16 11:16:43;;;;;;;7.80;6.20;;;;;;;17.33;50.00;103366.59;4984981;28;20026;-57
2022/04/16 11:19:15;;;;;;;8.02;6.70;;;;;;;17.83;51.00;103374.31;4984472;28;20089;-59
2022/04/16 11:21:41;;;;;;;9.50;5.80;;;;;;;17.88;50.49;103363.53;4967082;28;20405;-60
2022/04/16 11:24:06;;;;;;;6.93;5.20;;;;;;;17.87;47.51;103360.00;4985387;28;20025;-59